Terminal Aerodrome Forecast
Issued by NWS

Home | Current Version | Previous Version | Text Only | Print | Product List | Glossary On
Versions: 1 2 3 4 5 6 7 8 9 10 11 12 13 14 15 16 17 18 19
000
FTUS43 KGRR 211200 AAA
TAFLAN
TAF AMD
KLAN 211257Z 2113/2212 36010KT P6SM VCSH BKN025
      TEMPO 2113/2117 BKN035
     FM220100 02006KT P6SM BKN030
     FM220600 02004KT P6SM SCT030=

USA.gov is the U.S. government's official web portal to all federal, state and local government web resources and services.